Time;durP1;ratioP1;P1;durP2;ratioP2;P2;SDS_P1;SDS_P2;PMS_P1;PMS_P2;Temp;Humidity;BMP_temperature;BMP_pressure;BME280_temperature;BME280_humidity;BME280_pressure;Samples;Min_cycle;Max_cycle;Signal;HPM_P1;HPM_P2
2023/03/11 11:32:38;;;;;;;;;1.00;1.00;;;;;18.37;43.35;100717.00;5114030;27;45850;-74
2023/03/11 11:35:07;;;;;;;;;1.25;0.50;;;;;18.85;44.22;100725.38;5096236;27;45453;-73
2023/03/11 11:37:35;;;;;;;;;0.50;0.50;;;;;19.57;44.78;100713.56;5099729;27;45473;-73
2023/03/11 11:40:09;;;;;;;;;0.00;0.00;;;;;20.41;44.27;100711.97;5102019;27;45905;-77
2023/03/11 11:42:37;;;;;;;;;0.33;0.33;;;;;21.25;43.53;100708.41;5101683;27;46615;-78
2023/03/11 11:45:45;;;;;;;;;1.00;0.67;;;;;22.11;42.62;100710.59;5102140;27;45729;-78
2023/03/11 11:48:28;;;;;;;;;0.67;0.67;;;;;22.87;42.36;100712.66;5099299;27;45497;-79
2023/03/11 11:50:58;;;;;;;;;0.00;0.00;;;;;23.47;40.83;100705.34;5097575;27;45592;-78
2023/03/11 11:53:48;;;;;;;;;1.00;1.00;;;;;24.01;40.24;100709.34;5111550;27;45451;-77
2023/03/11 11:56:13;;;;;;;;;2.00;0.67;;;;;24.39;39.55;100695.19;5121085;27;45376;-77
2023/03/11 11:58:40;;;;;;;;;1.33;0.00;;;;;24.80;38.64;100687.88;5116946;27;45780;-77
2023/03/11 12:01:24;;;;;;;;;0.33;0.33;;;;;25.11;37.92;100687.03;5110491;27;45738;-78
2023/03/11 12:04:15;;;;;;;;;1.00;1.00;;;;;25.41;37.80;100694.47;5120929;27;48405;-78
2023/03/11 12:06:58;;;;;;;;;2.00;0.33;;;;;25.66;37.02;100692.38;5107423;27;46105;-78
2023/03/11 12:09:38;;;;;;;;;1.00;1.00;;;;;25.90;36.58;100706.75;5117674;27;45531;-75
2023/03/11 12:12:18;;;;;;;;;2.00;0.33;;;;;26.11;35.96;100706.03;5123898;27;45478;-73
2023/03/11 12:15:02;;;;;;;;;1.33;0.33;;;;;26.29;35.58;100704.84;5114057;27;45844;-77
2023/03/11 12:17:30;;;;;;;;;0.00;0.00;;;;;26.43;35.62;100706.72;5116557;27;46270;-75
2023/03/11 12:20:01;;;;;;;;;1.00;1.00;;;;;26.58;35.39;100695.78;5099564;27;45607;-75
2023/03/11 12:22:59;;;;;;;;;1.00;1.00;;;;;26.75;35.33;100705.63;5108754;27;45581;-72
2023/03/11 12:26:06;;;;;;;;;1.33;0.00;;;;;26.91;35.10;100704.56;5097645;27;46570;-73
2023/03/11 12:28:41;;;;;;;;;1.00;1.00;;;;;27.05;34.75;100698.25;5109038;27;45430;-73
2023/03/11 12:31:09;;;;;;;;;0.33;0.33;;;;;27.14;33.80;100696.22;5107796;27;45722;-73
2023/03/11 12:33:37;;;;;;;;;2.67;1.00;;;;;27.23;34.24;100688.78;5094289;27;45471;-73
2023/03/11 12:36:05;;;;;;;;;0.00;0.00;;;;;27.30;33.54;100691.59;5109063;27;46318;-72
2023/03/11 12:38:51;;;;;;;;;1.00;1.00;;;;;27.35;33.31;100684.47;5108518;27;45543;-73
2023/03/11 12:41:40;;;;;;;;;1.00;1.00;;;;;27.41;33.39;100685.59;5099249;27;45827;-73
2023/03/11 12:44:29;;;;;;;;;1.00;0.00;;;;;27.45;32.72;100686.88;5090661;27;45390;-73
2023/03/11 12:46:57;;;;;;;;;0.00;0.00;;;;;27.53;33.00;100685.03;5091756;27;47231;-72
2023/03/11 12:49:53;;;;;;;;;2.00;2.00;;;;;27.60;33.07;100680.53;5096146;27;45461;-73
2023/03/11 12:52:28;;;;;;;;;0.00;0.00;;;;;27.65;32.70;100678.06;5102151;27;45563;-73
2023/03/11 12:54:54;;;;;;;;;1.67;0.00;;;;;27.74;32.88;100676.00;5089023;27;45505;-73
2023/03/11 12:57:19;;;;;;;;;3.33;1.00;;;;;27.80;32.47;100677.97;5091332;27;46660;-72
2023/03/11 13:00:21;;;;;;;;;1.00;1.00;;;;;27.85;32.36;100680.94;5084896;27;45685;-72
2023/03/11 13:02:49;;;;;;;;;0.00;0.00;;;;;27.88;31.77;100682.41;5087348;27;45574;-72
2023/03/11 13:05:43;;;;;;;;;1.67;1.67;;;;;27.89;32.14;100681.38;5088683;27;45818;-72
2023/03/11 13:08:24;;;;;;;;;2.67;1.00;;;;;27.89;31.86;100675.91;5089301;27;46357;-72
2023/03/11 13:10:51;;;;;;;;;2.00;2.00;;;;;27.88;31.18;100677.78;5095507;27;45445;-72
2023/03/11 13:13:31;;;;;;;;;3.00;2.00;;;;;27.90;31.45;100683.06;5084665;27;45356;-72
2023/03/11 13:16:17;;;;;;;;;2.00;1.00;;;;;27.90;31.55;100684.94;5075968;27;45429;-72
2023/03/11 13:18:44;;;;;;;;;2.00;1.00;;;;;27.88;30.81;100685.16;5089693;27;45781;-71
2023/03/11 13:21:28;;;;;;;;;1.00;1.00;;;;;27.85;31.10;100671.91;5084765;27;45724;-72
2023/03/11 13:24:21;;;;;;;;;2.33;1.00;;;;;27.84;31.05;100670.22;5095553;27;45459;-71
2023/03/11 13:26:58;;;;;;;;;2.33;2.33;;;;;27.82;30.60;100678.59;5095126;27;45522;-72
2023/03/11 13:29:54;;;;;;;;;1.00;1.00;;;;;27.81;30.74;100676.06;5086259;27;47012;-76
2023/03/11 13:32:28;;;;;;;;;3.00;1.00;;;;;27.77;30.86;100667.44;5087130;27;45805;-72
2023/03/11 13:35:08;;;;;;;;;2.00;2.00;;;;;27.76;30.99;100665.78;5086044;27;45789;-72
2023/03/11 13:37:55;;;;;;;;;2.00;1.00;;;;;27.79;31.08;100664.53;5090316;27;45680;-72
2023/03/11 13:40:41;;;;;;;;;0.00;0.00;;;;;27.80;30.55;100668.94;5080706;27;46174;-75
2023/03/11 13:43:20;;;;;;;;;2.67;2.67;;;;;27.81;31.02;100665.16;5090463;27;45937;-72
